createdAt,value
2023-05-14T00:00:04.180Z,95081.47
2023-05-14T00:02:30.951Z,95078.06
2023-05-14T00:04:57.568Z,95075.09
2023-05-14T00:07:30.752Z,95078.50
2023-05-14T00:09:58.609Z,95077.38
2023-05-14T00:12:26.383Z,95074.38
2023-05-14T00:14:53.740Z,95077.03
2023-05-14T00:17:20.442Z,95075.91
2023-05-14T00:19:46.928Z,95077.44
2023-05-14T00:22:13.601Z,95064.66
2023-05-14T00:24:40.091Z,95069.19
2023-05-14T00:27:07.343Z,95071.84
2023-05-14T00:29:34.213Z,95068.09
2023-05-14T00:32:00.817Z,95058.72
2023-05-14T00:34:27.381Z,95057.97
2023-05-14T00:36:53.936Z,95061.34
2023-05-14T00:39:20.584Z,95062.09
2023-05-14T00:41:47.165Z,95063.97
2023-05-14T00:44:13.706Z,95050.47
2023-05-14T00:46:40.635Z,95046.72
2023-05-14T00:49:07.282Z,95052.72
2023-05-14T00:51:33.828Z,95049.72
2023-05-14T00:54:00.792Z,95052.72
2023-05-14T00:56:27.987Z,95054.22
2023-05-14T00:58:54.617Z,95045.19
2023-05-14T01:01:21.382Z,95052.72
2023-05-14T01:03:49.043Z,95054.22
2023-05-14T01:06:18.318Z,95055.34
2023-05-14T01:08:53.773Z,95056.88
2023-05-14T01:11:29.376Z,95050.84
2023-05-14T01:14:21.278Z,95048.59
2023-05-14T01:16:51.073Z,95052.72
2023-05-14T01:19:41.480Z,95047.09
2023-05-14T01:22:08.444Z,95051.22
2023-05-14T01:24:35.063Z,95054.22
2023-05-14T01:27:18.355Z,95049.72
2023-05-14T01:29:52.866Z,95042.19
2023-05-14T01:32:23.287Z,95053.84
2023-05-14T01:34:51.033Z,95049.72
2023-05-14T01:37:18.388Z,95049.34
2023-05-14T01:39:45.833Z,95046.72
2023-05-14T01:42:13.297Z,95052.72
2023-05-14T01:44:39.974Z,95055.72
2023-05-14T01:47:06.614Z,95045.22
2023-05-14T01:49:33.230Z,95053.47
2023-05-14T01:51:59.821Z,95053.84
2023-05-14T01:54:26.401Z,95050.47
2023-05-14T01:56:53.155Z,95051.19
2023-05-14T01:59:19.806Z,95050.41
2023-05-14T02:01:46.362Z,95042.13
2023-05-14T02:04:13.027Z,95043.63
2023-05-14T02:06:39.683Z,95050.78
2023-05-14T02:09:06.362Z,95047.75
2023-05-14T02:11:33.012Z,95040.97
2023-05-14T02:13:59.596Z,95047.75
2023-05-14T02:16:26.259Z,95036.84
2023-05-14T02:18:52.985Z,95036.03
2023-05-14T02:21:19.597Z,95045.13
2023-05-14T02:23:46.144Z,95032.31
2023-05-14T02:26:12.800Z,95027.06
2023-05-14T02:28:39.426Z,95035.34
2023-05-14T02:31:06.162Z,95027.06
2023-05-14T02:33:32.879Z,95030.06
2023-05-14T02:35:59.548Z,95031.56
2023-05-14T02:38:26.520Z,95022.50
2023-05-14T02:40:53.263Z,95015.72
2023-05-14T02:43:19.823Z,95019.09
2023-05-14T02:45:46.443Z,95022.91
2023-05-14T02:48:13.165Z,95016.88
2023-05-14T02:50:39.819Z,95007.53
2023-05-14T02:53:06.420Z,95015.09
2023-05-14T02:55:32.935Z,95016.97
2023-05-14T02:57:59.568Z,95015.13
2023-05-14T03:00:26.247Z,95019.66
2023-05-14T03:02:53.459Z,95015.91
2023-05-14T03:05:20.816Z,95027.56
2023-05-14T03:07:47.408Z,95030.94
2023-05-14T03:10:13.998Z,95018.91
2023-05-14T03:12:40.644Z,95021.91
2023-05-14T03:15:07.784Z,95011.38
2023-05-14T03:17:34.325Z,95014.00
2023-05-14T03:20:00.885Z,95022.59
2023-05-14T03:22:27.651Z,95029.72
2023-05-14T03:24:54.262Z,95017.31
2023-05-14T03:27:21.134Z,95021.44
2023-05-14T03:29:47.764Z,95026.69
2023-05-14T03:32:15.017Z,95015.03
2023-05-14T03:34:41.808Z,95024.03
2023-05-14T03:37:08.341Z,95024.00
2023-05-14T03:39:35.065Z,95023.97
2023-05-14T03:42:01.946Z,95020.19
2023-05-14T03:44:28.674Z,95026.97
2023-05-14T03:46:55.895Z,95022.47
2023-05-14T03:49:22.437Z,95030.75
2023-05-14T03:51:48.992Z,95034.84
2023-05-14T03:54:15.655Z,95031.47
2023-05-14T03:56:42.407Z,95032.97
2023-05-14T03:59:09.018Z,95026.22
2023-05-14T04:01:35.564Z,95038.25
2023-05-14T04:04:02.323Z,95039.44
2023-05-14T04:06:29.081Z,95041.31
2023-05-14T04:08:55.714Z,95042.38
2023-05-14T04:11:22.330Z,95040.47
2023-05-14T04:13:48.916Z,95048.75
2023-05-14T04:16:15.490Z,95044.22
2023-05-14T04:18:42.176Z,95049.88
2023-05-14T04:21:08.803Z,95044.28
2023-05-14T04:23:35.576Z,95047.63
2023-05-14T04:26:02.421Z,95039.38
2023-05-14T04:28:29.050Z,95045.75
2023-05-14T04:30:55.690Z,95041.59
2023-05-14T04:33:22.449Z,95046.53
2023-05-14T04:35:49.073Z,95046.91
2023-05-14T04:38:15.737Z,95043.59
2023-05-14T04:40:42.857Z,95048.91
2023-05-14T04:43:09.845Z,95042.13
2023-05-14T04:45:36.726Z,95045.88
2023-05-14T04:48:04.663Z,95047.44
2023-05-14T04:50:31.462Z,95042.19
2023-05-14T04:52:58.087Z,95046.72
2023-05-14T04:55:24.709Z,95048.22
2023-05-14T04:57:51.636Z,95045.94
2023-05-14T05:00:19.295Z,95039.19
2023-05-14T05:02:45.900Z,95039.19
2023-05-14T05:05:12.509Z,95045.97
2023-05-14T05:07:39.052Z,95032.00
2023-05-14T05:10:06.285Z,95043.59
2023-05-14T05:12:32.845Z,95039.47
2023-05-14T05:14:59.386Z,95044.38
2023-05-14T05:17:26.109Z,95042.06
2023-05-14T05:19:52.975Z,95045.78
2023-05-14T05:22:20.362Z,95038.22
2023-05-14T05:24:49.784Z,95037.09
2023-05-14T05:27:16.702Z,95044.22
2023-05-14T05:29:44.495Z,95028.03
2023-05-14T05:32:11.151Z,95029.94
2023-05-14T05:34:37.736Z,95042.06
2023-05-14T05:37:06.017Z,95036.78
2023-05-14T05:39:34.931Z,95036.69
2023-05-14T05:42:02.788Z,95033.88
2023-05-14T05:44:29.434Z,95026.50
2023-05-14T05:46:57.422Z,95035.81
2023-05-14T05:49:24.196Z,95037.38
2023-05-14T05:51:50.933Z,95033.53
2023-05-14T05:54:17.463Z,95021.88
2023-05-14T05:56:43.993Z,95025.78
2023-05-14T05:59:10.541Z,95026.50
2023-05-14T06:01:37.337Z,95015.13
2023-05-14T06:04:06.383Z,95025.78
2023-05-14T06:06:33.132Z,95016.13
2023-05-14T06:09:01.783Z,95018.84
2023-05-14T06:11:28.380Z,95018.22
2023-05-14T06:13:54.990Z,95024.13
2023-05-14T06:16:21.553Z,95013.78
2023-05-14T06:18:48.765Z,95014.81
2023-05-14T06:21:15.443Z,95008.88
2023-05-14T06:23:42.117Z,95009.97
2023-05-14T06:26:08.644Z,95015.47
2023-05-14T06:28:35.285Z,95017.69
2023-05-14T06:31:01.859Z,95023.97
2023-05-14T06:33:31.558Z,95014.06
2023-05-14T06:35:59.709Z,95012.66
2023-05-14T06:38:26.665Z,95027.50
2023-05-14T06:40:53.324Z,95020.88
2023-05-14T06:43:19.949Z,95025.19
2023-05-14T06:45:50.535Z,95025.38
2023-05-14T06:48:21.213Z,95036.28
2023-05-14T06:50:49.340Z,95032.25
2023-05-14T06:53:16.080Z,95032.16
2023-05-14T06:55:42.717Z,95040.09
2023-05-14T06:58:09.899Z,95037.16
2023-05-14T07:00:36.531Z,95035.00
2023-05-14T07:03:03.209Z,95039.63
2023-05-14T07:05:29.858Z,95030.16
2023-05-14T07:07:56.505Z,95036.06
2023-05-14T07:10:23.928Z,95029.81
2023-05-14T07:12:50.809Z,95036.28
2023-05-14T07:15:17.480Z,95022.28
2023-05-14T07:17:44.072Z,95028.66
2023-05-14T07:20:11.077Z,95024.88
2023-05-14T07:22:37.594Z,95017.56
2023-05-14T07:25:04.329Z,95029.00
2023-05-14T07:27:30.875Z,95027.81
2023-05-14T07:29:57.429Z,95026.72
2023-05-14T07:32:25.256Z,95027.28
2023-05-14T07:34:51.807Z,95034.59
2023-05-14T07:37:18.848Z,95032.13
2023-05-14T07:39:45.668Z,95038.03
2023-05-14T07:42:19.306Z,95031.03
2023-05-14T07:44:51.965Z,95032.31
2023-05-14T07:47:18.634Z,95026.69
2023-05-14T07:49:45.360Z,95025.31
2023-05-14T07:52:12.074Z,95013.56
2023-05-14T07:54:38.733Z,95014.91
2023-05-14T07:57:05.352Z,95020.81
2023-05-14T07:59:32.136Z,95009.03
2023-05-14T08:01:58.659Z,95010.81
2023-05-14T08:04:25.378Z,95012.91
2023-05-14T08:06:52.015Z,95007.81
2023-05-14T08:09:18.580Z,95013.97
2023-05-14T08:11:45.138Z,95016.09
2023-05-14T08:14:11.955Z,95016.91
2023-05-14T08:16:38.961Z,95010.25
2023-05-14T08:19:05.793Z,95012.59
2023-05-14T08:21:32.834Z,95012.38
2023-05-14T08:23:59.701Z,95005.44
2023-05-14T08:26:26.504Z,95001.03
2023-05-14T08:28:54.421Z,94998.66
2023-05-14T08:31:21.119Z,95002.81
2023-05-14T08:33:47.695Z,94990.22
2023-05-14T08:36:14.243Z,94998.06
2023-05-14T08:38:42.224Z,95004.19
2023-05-14T08:41:11.660Z,95005.81
2023-05-14T08:44:03.730Z,95009.03
2023-05-14T08:46:31.874Z,95001.69
2023-05-14T08:49:11.668Z,95000.00
2023-05-14T08:51:38.664Z,95004.56
2023-05-14T08:54:05.968Z,94994.78
2023-05-14T08:56:33.528Z,94996.91
2023-05-14T08:59:00.578Z,94985.41
2023-05-14T09:01:28.021Z,94988.09
2023-05-14T09:03:55.041Z,94980.97
2023-05-14T09:06:22.586Z,94983.31
2023-05-14T09:08:49.334Z,94968.59
2023-05-14T09:11:15.842Z,94966.41
2023-05-14T09:13:43.125Z,94982.75
2023-05-14T09:16:09.891Z,94975.78
2023-05-14T09:18:37.074Z,94976.50
2023-05-14T09:21:04.498Z,94977.84
2023-05-14T09:23:34.646Z,94982.00
2023-05-14T09:26:05.612Z,94974.03
2023-05-14T09:28:32.188Z,94979.59
2023-05-14T09:30:58.682Z,94976.25
2023-05-14T09:33:29.445Z,94975.88
2023-05-14T09:36:00.651Z,94965.88
2023-05-14T09:38:33.892Z,94970.50
2023-05-14T09:41:00.954Z,94967.69
2023-05-14T09:43:27.720Z,94972.25
2023-05-14T09:45:54.262Z,94973.59
2023-05-14T09:48:22.392Z,94970.88
2023-05-14T09:50:49.166Z,94973.56
2023-05-14T09:53:15.848Z,94965.88
2023-05-14T09:55:42.473Z,94965.03
2023-05-14T09:58:09.085Z,94967.31
2023-05-14T10:00:36.372Z,94964.50
2023-05-14T10:03:06.904Z,94956.97
2023-05-14T10:05:37.343Z,94956.19
2023-05-14T10:08:12.351Z,94957.22
2023-05-14T10:10:39.407Z,94962.72
2023-05-14T10:13:13.673Z,94959.09
2023-05-14T10:15:42.405Z,94955.84
2023-05-14T10:18:16.284Z,94958.66
2023-05-14T10:20:44.699Z,94947.53
2023-05-14T10:23:11.655Z,94962.75
2023-05-14T10:25:39.110Z,94945.19
2023-05-14T10:28:06.287Z,94943.53
2023-05-14T10:30:33.038Z,94948.50
2023-05-14T10:33:09.993Z,94940.50
2023-05-14T10:35:59.699Z,94940.06
2023-05-14T10:38:32.028Z,94947.50
2023-05-14T10:41:12.009Z,94948.31
2023-05-14T10:43:40.775Z,94941.22
2023-05-14T10:46:08.881Z,94945.66
2023-05-14T10:48:37.120Z,94940.63
2023-05-14T10:51:03.842Z,94944.69
2023-05-14T10:53:39.535Z,94960.16
2023-05-14T10:56:10.065Z,94951.75
2023-05-14T10:58:42.415Z,94942.72
2023-05-14T11:01:11.262Z,94930.66
2023-05-14T11:03:43.245Z,94936.00
2023-05-14T11:06:11.648Z,94930.50
2023-05-14T11:08:39.126Z,94940.22
2023-05-14T11:11:06.928Z,94929.66
2023-05-14T11:13:34.692Z,94928.81
2023-05-14T11:16:15.136Z,94936.97
2023-05-14T11:18:48.157Z,94932.06
2023-05-14T11:21:14.792Z,94930.56
2023-05-14T11:23:41.315Z,94930.28
2023-05-14T11:26:07.963Z,94924.56
2023-05-14T11:28:34.561Z,94922.22
2023-05-14T11:31:01.396Z,94925.91
2023-05-14T11:33:28.410Z,94924.53
2023-05-14T11:35:54.941Z,94926.69
2023-05-14T11:38:21.601Z,94925.81
2023-05-14T11:40:58.721Z,94916.50
2023-05-14T11:43:29.385Z,94918.50
2023-05-14T11:45:56.639Z,94915.88
2023-05-14T11:48:24.031Z,94914.13
2023-05-14T11:50:52.941Z,94908.19
2023-05-14T11:53:28.227Z,94916.00
2023-05-14T11:55:55.193Z,94902.97
2023-05-14T11:58:22.137Z,94906.88
2023-05-14T12:00:53.529Z,94905.66
2023-05-14T12:03:26.266Z,94910.00
2023-05-14T12:05:59.498Z,94909.16
2023-05-14T12:08:28.205Z,94904.53
2023-05-14T12:10:55.143Z,94905.47
2023-05-14T12:13:22.826Z,94910.25
2023-05-14T12:15:56.222Z,94904.88
2023-05-14T12:18:27.063Z,94904.75
2023-05-14T12:20:53.795Z,94908.78
2023-05-14T12:23:27.794Z,94905.44
2023-05-14T12:25:54.525Z,94894.06
2023-05-14T12:28:23.236Z,94893.50
2023-05-14T12:30:56.483Z,94890.41
2023-05-14T12:33:23.899Z,94883.66
2023-05-14T12:35:50.496Z,94879.56
2023-05-14T12:38:17.123Z,94880.38
2023-05-14T12:40:43.673Z,94876.16
2023-05-14T12:43:10.370Z,94876.28
2023-05-14T12:45:37.174Z,94868.66
2023-05-14T12:48:03.896Z,94873.84
2023-05-14T12:50:30.559Z,94874.16
2023-05-14T12:52:58.120Z,94882.50
2023-05-14T12:55:24.764Z,94873.75
2023-05-14T12:57:51.337Z,94880.00
2023-05-14T13:00:18.211Z,94884.38
2023-05-14T13:02:45.026Z,94884.31
2023-05-14T13:05:12.513Z,94877.28
2023-05-14T13:07:39.284Z,94873.13
2023-05-14T13:10:06.843Z,94881.50
2023-05-14T13:12:33.482Z,94873.31
2023-05-14T13:15:00.088Z,94871.78
2023-05-14T13:17:26.778Z,94856.84
2023-05-14T13:19:53.556Z,94871.88
2023-05-14T13:22:20.206Z,94869.91
2023-05-14T13:24:46.949Z,94862.00
2023-05-14T13:27:13.446Z,94871.53
2023-05-14T13:29:40.036Z,94855.59
2023-05-14T13:32:07.787Z,94870.75
2023-05-14T13:34:34.464Z,94864.69
2023-05-14T13:37:01.280Z,94865.25
2023-05-14T13:39:27.934Z,94857.84
2023-05-14T13:41:56.827Z,94858.13
2023-05-14T13:44:23.818Z,94846.00
2023-05-14T13:46:50.724Z,94845.75
2023-05-14T13:49:17.471Z,94843.41
2023-05-14T13:51:44.245Z,94842.97
2023-05-14T13:54:10.955Z,94832.13
2023-05-14T13:56:37.709Z,94827.22
2023-05-14T13:59:04.384Z,94823.50
2023-05-14T14:01:31.777Z,94818.72
2023-05-14T14:03:58.523Z,94817.31
2023-05-14T14:06:27.572Z,94826.97
2023-05-14T14:08:54.217Z,94814.09
2023-05-14T14:11:20.995Z,94814.97
2023-05-14T14:13:47.589Z,94816.38
2023-05-14T14:16:14.242Z,94809.09
2023-05-14T14:18:41.423Z,94816.81
2023-05-14T14:21:08.011Z,94820.84
2023-05-14T14:23:34.568Z,94817.44
2023-05-14T14:26:01.314Z,94816.69
2023-05-14T14:28:27.957Z,94803.38
2023-05-14T14:30:54.606Z,94807.84
2023-05-14T14:33:21.244Z,94806.84
2023-05-14T14:35:48.047Z,94805.91
2023-05-14T14:38:14.639Z,94804.28
2023-05-14T14:40:41.282Z,94816.13
2023-05-14T14:43:07.858Z,94812.72
2023-05-14T14:45:34.745Z,94817.72
2023-05-14T14:48:27.483Z,94814.72
2023-05-14T14:50:55.476Z,94815.19
2023-05-14T14:53:22.963Z,94816.56
2023-05-14T14:55:50.206Z,94819.31
2023-05-14T14:58:18.735Z,94819.19
2023-05-14T15:00:45.810Z,94814.16
2023-05-14T15:03:12.576Z,94821.38
2023-05-14T15:05:39.303Z,94812.50
2023-05-14T15:08:06.068Z,94825.16
2023-05-14T15:10:32.952Z,94819.78
2023-05-14T15:12:59.997Z,94831.94
2023-05-14T15:15:26.941Z,94821.81
2023-05-14T15:17:53.703Z,94830.91
2023-05-14T15:20:20.361Z,94831.25
2023-05-14T15:22:47.214Z,94835.06
2023-05-14T15:25:13.912Z,94827.84
2023-05-14T15:27:40.534Z,94840.78
2023-05-14T15:30:08.238Z,94843.59
2023-05-14T15:32:34.877Z,94860.19
2023-05-14T15:35:01.567Z,94858.00
2023-05-14T15:37:28.369Z,94861.06
2023-05-14T15:39:55.072Z,94862.19
2023-05-14T15:42:21.665Z,94864.03
2023-05-14T15:44:48.334Z,94860.28
2023-05-14T15:47:14.857Z,94876.16
2023-05-14T15:49:41.606Z,94879.13
2023-05-14T15:52:08.333Z,94899.22
2023-05-14T15:54:34.895Z,94899.41
2023-05-14T15:57:01.450Z,94902.41
2023-05-14T15:59:28.268Z,94904.69
2023-05-14T16:01:54.897Z,94895.31
2023-05-14T16:04:21.558Z,94892.41
2023-05-14T16:06:48.214Z,94898.06
2023-05-14T16:09:14.905Z,94887.09
2023-05-14T16:11:41.613Z,94885.47
2023-05-14T16:14:08.376Z,94879.16
2023-05-14T16:16:36.182Z,94867.84
2023-05-14T16:19:03.257Z,94878.00
2023-05-14T16:21:29.966Z,94878.94
2023-05-14T16:23:56.761Z,94877.63
2023-05-14T16:26:23.417Z,94870.81
2023-05-14T16:28:49.969Z,94862.41
2023-05-14T16:31:16.711Z,94865.72
2023-05-14T16:33:43.419Z,94865.63
2023-05-14T16:36:10.087Z,94874.59
2023-05-14T16:38:41.473Z,94868.59
2023-05-14T16:41:14.928Z,94860.59
2023-05-14T16:43:41.435Z,94866.75
2023-05-14T16:46:08.154Z,94877.00
2023-05-14T16:48:34.760Z,94868.88
2023-05-14T16:51:01.497Z,94872.56
2023-05-14T16:53:28.147Z,94868.31
2023-05-14T16:55:54.768Z,94872.78
2023-05-14T16:58:21.322Z,94875.41
2023-05-14T17:00:47.868Z,94881.16
2023-05-14T17:03:14.733Z,94872.97
2023-05-14T17:05:41.365Z,94877.06
2023-05-14T17:08:08.006Z,94876.72
2023-05-14T17:10:35.903Z,94881.34
2023-05-14T17:13:02.726Z,94872.09
2023-05-14T17:15:29.492Z,94873.13
2023-05-14T17:17:56.422Z,94870.28
2023-05-14T17:20:23.161Z,94869.84
2023-05-14T17:22:49.784Z,94883.47
2023-05-14T17:25:16.445Z,94896.06
2023-05-14T17:27:43.000Z,94900.66
2023-05-14T17:30:10.048Z,94910.94
2023-05-14T17:32:36.661Z,94907.16
2023-05-14T17:35:03.504Z,94907.78
2023-05-14T17:37:30.174Z,94918.16
2023-05-14T17:39:56.830Z,94925.84
2023-05-14T17:42:23.473Z,94916.53
2023-05-14T17:44:50.114Z,94926.03
2023-05-14T17:47:16.786Z,94925.84
2023-05-14T17:49:43.618Z,94931.66
2023-05-14T17:52:10.267Z,94924.84
2023-05-14T17:54:37.021Z,94928.09
2023-05-14T17:57:03.768Z,94931.63
2023-05-14T17:59:30.308Z,94924.81
2023-05-14T18:01:56.940Z,94927.13
2023-05-14T18:04:23.479Z,94915.25
2023-05-14T18:06:50.032Z,94930.34
2023-05-14T18:09:16.624Z,94933.66
2023-05-14T18:11:43.346Z,94927.28
2023-05-14T18:14:10.170Z,94934.47
2023-05-14T18:16:37.544Z,94928.69
2023-05-14T18:19:04.650Z,94932.25
2023-05-14T18:21:31.670Z,94942.50
2023-05-14T18:23:58.219Z,94944.94
2023-05-14T18:26:24.815Z,94949.72
2023-05-14T18:28:51.590Z,94941.22
2023-05-14T18:31:18.145Z,94962.75
2023-05-14T18:33:44.694Z,94959.38
2023-05-14T18:36:11.814Z,94952.75
2023-05-14T18:38:38.452Z,94942.34
2023-05-14T18:41:05.299Z,94951.13
2023-05-14T18:43:32.060Z,94941.66
2023-05-14T18:45:59.120Z,94945.94
2023-05-14T18:48:26.385Z,94942.44
2023-05-14T18:50:52.894Z,94947.34
2023-05-14T18:53:19.437Z,94953.28
2023-05-14T18:55:46.016Z,94958.47
2023-05-14T18:58:12.740Z,94953.22
2023-05-14T19:00:39.271Z,94959.19
2023-05-14T19:03:06.124Z,94965.13
2023-05-14T19:05:32.866Z,94970.00
2023-05-14T19:07:59.556Z,94963.84
2023-05-14T19:10:26.169Z,94961.56
2023-05-14T19:12:52.736Z,94965.97
2023-05-14T19:15:19.263Z,94959.06
2023-05-14T19:17:45.957Z,94959.47
2023-05-14T19:20:12.735Z,94952.41
2023-05-14T19:22:39.250Z,94958.09
2023-05-14T19:25:07.860Z,94957.06
2023-05-14T19:27:37.100Z,94965.09
2023-05-14T19:30:04.435Z,94975.03
2023-05-14T19:32:30.985Z,94984.31
2023-05-14T19:34:57.607Z,94985.69
2023-05-14T19:37:24.244Z,94992.47
2023-05-14T19:39:50.852Z,94995.75
2023-05-14T19:42:17.531Z,94996.94
2023-05-14T19:44:44.173Z,94997.38
2023-05-14T19:47:10.915Z,95005.63
2023-05-14T19:49:37.735Z,95004.88
2023-05-14T19:52:04.513Z,95013.94
2023-05-14T19:54:31.147Z,95020.72
2023-05-14T19:56:57.726Z,95029.38
2023-05-14T19:59:24.888Z,95039.13
2023-05-14T20:01:51.877Z,95043.78
2023-05-14T20:04:19.821Z,95044.88
2023-05-14T20:06:47.183Z,95038.88
2023-05-14T20:09:14.535Z,95036.06
2023-05-14T20:11:41.167Z,95033.50
2023-05-14T20:14:07.681Z,95031.22
2023-05-14T20:16:34.332Z,95036.22
2023-05-14T20:19:00.985Z,95037.38
2023-05-14T20:21:27.507Z,95034.41
2023-05-14T20:23:54.264Z,95043.00
2023-05-14T20:26:21.265Z,95044.84
2023-05-14T20:28:47.849Z,95037.56
2023-05-14T20:31:14.465Z,95038.03
2023-05-14T20:33:41.073Z,95038.88
2023-05-14T20:36:07.642Z,95037.44
2023-05-14T20:38:35.125Z,95020.88
2023-05-14T20:41:01.739Z,95022.41
2023-05-14T20:43:28.369Z,95003.38
2023-05-14T20:45:57.172Z,95006.06
2023-05-14T20:48:23.808Z,95003.81
2023-05-14T20:50:50.327Z,94992.47
2023-05-14T20:53:16.978Z,94980.13
2023-05-14T20:55:44.757Z,94997.88
2023-05-14T20:58:11.275Z,95011.53
2023-05-14T21:00:38.010Z,95011.91
2023-05-14T21:03:04.890Z,95019.34
2023-05-14T21:05:32.296Z,95017.38
2023-05-14T21:07:58.839Z,95020.22
2023-05-14T21:10:25.779Z,95022.69
2023-05-14T21:12:52.526Z,95019.06
2023-05-14T21:15:19.139Z,95018.25
2023-05-14T21:17:45.954Z,95021.34
2023-05-14T21:20:15.486Z,95020.66
2023-05-14T21:22:42.152Z,95018.72
2023-05-14T21:25:09.058Z,95019.06
2023-05-14T21:27:35.636Z,95010.00
2023-05-14T21:30:02.357Z,95016.00
2023-05-14T21:32:29.049Z,95005.75
2023-05-14T21:34:56.287Z,95010.97
2023-05-14T21:37:22.923Z,95001.97
2023-05-14T21:39:49.551Z,95006.84
2023-05-14T21:42:16.376Z,95004.72
2023-05-14T21:44:42.932Z,95000.88
2023-05-14T21:47:09.477Z,95012.38
2023-05-14T21:49:36.033Z,95002.88
2023-05-14T21:52:03.066Z,94998.69
2023-05-14T21:54:29.734Z,95001.94
2023-05-14T21:56:56.552Z,94994.97
2023-05-14T21:59:23.097Z,94991.59
2023-05-14T22:02:06.178Z,94986.66
2023-05-14T22:04:33.826Z,94994.50
2023-05-14T22:07:00.539Z,94990.06
2023-05-14T22:09:27.417Z,94991.84
2023-05-14T22:11:53.995Z,95003.91
2023-05-14T22:14:20.539Z,94975.34
2023-05-14T22:16:47.284Z,95006.06
2023-05-14T22:19:16.504Z,95005.91
2023-05-14T22:21:43.254Z,95006.75
2023-05-14T22:24:09.828Z,95000.06
2023-05-14T22:26:36.348Z,95002.72
2023-05-14T22:29:02.995Z,94992.66
2023-05-14T22:31:30.145Z,94990.38
2023-05-14T22:33:56.713Z,94988.91
2023-05-14T22:36:23.329Z,94982.22
2023-05-14T22:38:49.846Z,94979.97
2023-05-14T22:41:17.660Z,94969.31
2023-05-14T22:43:44.293Z,94962.50
2023-05-14T22:46:10.919Z,94980.66
2023-05-14T22:48:37.572Z,94978.47
2023-05-14T22:51:04.310Z,94976.50
2023-05-14T22:53:30.978Z,94958.84
2023-05-14T22:55:57.575Z,94974.38
2023-05-14T22:58:24.358Z,94968.69
2023-05-14T23:00:50.908Z,94971.75
2023-05-14T23:03:17.439Z,94977.06
2023-05-14T23:05:43.998Z,94960.53
2023-05-14T23:08:10.949Z,94961.94
2023-05-14T23:10:37.473Z,94959.75
2023-05-14T23:13:04.645Z,94956.00
2023-05-14T23:15:31.663Z,94955.97
2023-05-14T23:17:58.596Z,94949.22
2023-05-14T23:20:25.233Z,94945.41
2023-05-14T23:22:52.188Z,94942.56
2023-05-14T23:25:18.750Z,94946.19
2023-05-14T23:27:45.618Z,94946.94
2023-05-14T23:30:12.514Z,94950.72
2023-05-14T23:32:39.086Z,94950.25
2023-05-14T23:35:05.758Z,94942.31
2023-05-14T23:37:33.615Z,94943.97
2023-05-14T23:40:00.207Z,94947.31
2023-05-14T23:42:26.658Z,94939.63
2023-05-14T23:44:53.105Z,94940.09
2023-05-14T23:47:19.697Z,94937.97
2023-05-14T23:49:46.188Z,94943.13
2023-05-14T23:52:12.753Z,94941.88
2023-05-14T23:54:39.378Z,94937.06
2023-05-14T23:57:06.128Z,94929.25
2023-05-14T23:59:32.694Z,94934.16
